Time,TemperatureF,DewpointF,PressureIn,WindDirection,WindDirectionDegrees,WindSpeedMPH,WindSpeedGustMPH,Humidity,HourlyPrecipIn,Conditions,Clouds,dailyrainin,SoftwareType,DateUTC
2013-05-01 00:38:00,61.5,53.3,29.81,South,180,5.1,5.1,74,0.00,,,0.00,WUHU21623XXSP,2013-05-01 04:38:00,
2013-05-01 01:38:00,61.1,52.9,29.82,South,180,4.0,4.0,74,0.00,,,0.00,WUHU21623XXSP,2013-05-01 05:38:00,
2013-05-01 02:38:00,60.4,52.2,29.83,SW,225,0.0,0.0,74,0.00,,,0.00,WUHU21623XXSP,2013-05-01 06:38:00,
2013-05-01 03:38:00,59.1,51.6,29.84,SSE,158,1.6,1.6,76,0.00,,,0.00,WUHU21623XXSP,2013-05-01 07:38:00,
2013-05-01 04:38:00,57.3,50.9,29.86,SSW,203,0.0,0.0,79,0.00,,,0.00,WUHU21623XXSP,2013-05-01 08:38:00,
2013-05-01 05:38:00,56.8,51.1,29.87,South,180,1.8,1.8,81,0.00,,,0.00,WUHU21623XXSP,2013-05-01 09:38:00,
2013-05-01 06:38:00,56.6,50.9,29.89,SSW,203,6.7,6.7,81,0.00,,,0.00,WUHU21623XXSP,2013-05-01 10:38:00,
2013-05-01 07:38:00,61.3,54.5,29.91,SSW,203,1.3,1.3,78,0.00,,,0.00,WUHU21623XXSP,2013-05-01 11:38:00,
2013-05-01 08:38:00,65.8,55.1,29.93,SSE,158,6.7,6.7,68,0.00,,,0.00,WUHU21623XXSP,2013-05-01 12:38:00,
2013-05-01 09:38:00,68.8,56.7,29.94,SE,135,7.4,7.4,65,0.00,,,0.00,WUHU21623XXSP,2013-05-01 13:38:00,
2013-05-01 10:38:00,72.4,58.8,29.95,South,180,7.8,7.8,62,0.00,,,0.00,WUHU21623XXSP,2013-05-01 14:38:00,
2013-05-01 11:41:00,75.3,60.2,29.96,SSE,158,0.0,0.0,59,0.00,,,0.00,WUHU21623XXSP,2013-05-01 15:41:00,
2013-05-01 11:46:00,75.9,60.3,29.95,SSE,157,6.0,6.0,58,0.00,,,0.00,WUHU21623XXSP,2013-05-01 15:46:00,
2013-05-01 11:51:00,76.0,60.4,29.95,SSW,202,6.0,6.0,58,0.00,,,0.00,WUHU21623XXSP,2013-05-01 15:51:00,
2013-05-01 11:56:00,76.2,60.5,29.95,SSW,202,6.7,6.7,58,0.00,,,0.00,WUHU21623XXSP,2013-05-01 15:56:00,
2013-05-01 12:01:00,76.4,60.7,29.95,SSE,157,0.0,6.7,58,0.00,,,0.00,WUHU21623XXSP,2013-05-01 16:01:00,
2013-05-01 12:06:00,76.8,60.6,29.96,SSE,157,0.0,11.2,57,0.00,,,0.00,WUHU21623XXSP,2013-05-01 16:06:00,
2013-05-01 12:11:00,76.9,61.2,29.96,SW,225,8.3,11.2,58,0.00,,,0.00,WUHU21623XXSP,2013-05-01 16:11:00,
2013-05-01 12:16:00,77.1,60.9,29.96,SSW,202,0.0,8.3,57,0.00,,,0.00,WUHU21623XXSP,2013-05-01 16:16:00,
2013-05-01 12:21:00,77.1,60.9,29.96,SSE,157,3.6,7.4,57,0.00,,,0.00,WUHU21623XXSP,2013-05-01 16:21:00,
2013-05-01 12:26:00,77.3,61.6,29.96,SSE,157,0.0,7.4,58,0.00,,,0.00,WUHU21623XXSP,2013-05-01 16:26:00,
2013-05-01 12:31:00,77.8,61.0,29.96,SSE,157,0.0,0.0,56,0.00,,,0.00,WUHU21623XXSP,2013-05-01 16:31:00,
2013-05-01 12:36:00,78.0,61.2,29.96,SSW,202,0.0,0.0,56,0.00,,,0.00,WUHU21623XXSP,2013-05-01 16:36:00,
2013-05-01 12:45:00,78.2,61.9,29.95,SSE,157,0.0,0.0,57,0.00,,,0.00,WUHU21623XXSP,2013-05-01 16:45:00,
2013-05-01 12:50:00,78.4,61.6,29.95,South,180,0.0,0.0,56,0.00,,,0.00,WUHU21623XXSP,2013-05-01 16:50:00,
2013-05-01 12:56:00,78.6,61.8,29.95,South,180,0.0,0.0,56,0.00,,,0.00,WUHU21623XXSP,2013-05-01 16:56:00,
2013-05-01 13:01:00,78.7,61.9,29.95,SSW,202,6.7,6.7,56,0.00,,,0.00,WUHU21623XXSP,2013-05-01 17:01:00,
2013-05-01 13:06:00,78.9,61.5,29.95,SSE,157,0.0,6.7,55,0.00,,,0.00,WUHU21623XXSP,2013-05-01 17:06:00,
2013-05-01 13:11:00,79.3,61.4,29.95,SW,225,7.2,7.2,54,0.00,,,0.00,WUHU21623XXSP,2013-05-01 17:11:00,
2013-05-01 13:16:00,79.3,61.4,29.95,SSE,157,0.0,7.2,54,0.00,,,0.00,WUHU21623XXSP,2013-05-01 17:16:00,
2013-05-01 13:21:00,79.5,61.6,29.95,South,180,7.2,7.6,54,0.00,,,0.00,WUHU21623XXSP,2013-05-01 17:21:00,
2013-05-01 13:26:00,79.5,61.6,29.95,SE,135,7.2,7.6,54,0.00,,,0.00,WUHU21623XXSP,2013-05-01 17:26:00,
2013-05-01 13:32:00,79.6,60.6,29.94,SW,225,3.4,7.2,52,0.00,,,0.00,WUHU21623XXSP,2013-05-01 17:32:00,
2013-05-01 13:37:00,79.8,61.9,29.95,SSE,157,6.5,6.5,54,0.00,,,0.00,WUHU21623XXSP,2013-05-01 17:37:00,
2013-05-01 13:42:00,80.0,61.5,29.94,SE,135,2.0,6.5,53,0.00,,,0.00,WUHU21623XXSP,2013-05-01 17:42:00,
2013-05-01 13:47:00,80.2,62.2,29.95,South,180,6.3,6.3,54,0.00,,,0.00,WUHU21623XXSP,2013-05-01 17:47:00,
2013-05-01 13:52:00,80.4,61.3,29.95,SSW,202,12.3,12.3,52,0.00,,,0.00,WUHU21623XXSP,2013-05-01 17:52:00,
2013-05-01 13:57:00,80.5,61.4,29.95,SSW,202,0.0,12.3,52,0.00,,,0.00,WUHU21623XXSP,2013-05-01 17:57:00,
2013-05-01 14:02:00,80.5,60.8,29.95,South,180,2.2,2.2,51,0.00,,,0.00,WUHU21623XXSP,2013-05-01 18:02:00,
2013-05-01 14:07:00,80.5,61.4,29.95,SSW,202,0.0,2.2,52,0.00,,,0.00,WUHU21623XXSP,2013-05-01 18:07:00,
2013-05-01 14:12:00,80.7,61.6,29.95,SSE,157,4.9,6.0,52,0.00,,,0.00,WUHU21623XXSP,2013-05-01 18:12:00,
2013-05-01 14:17:00,80.7,60.5,29.95,SSW,202,11.4,11.4,50,0.00,,,0.00,WUHU21623XXSP,2013-05-01 18:17:00,
2013-05-01 14:22:00,80.7,61.0,29.95,SSW,202,11.4,11.4,51,0.00,,,0.00,WUHU21623XXSP,2013-05-01 18:22:00,
2013-05-01 14:27:00,81.1,60.2,29.95,SSW,202,6.9,11.4,49,0.00,,,0.00,WUHU21623XXSP,2013-05-01 18:27:00,
2013-05-01 14:32:00,80.9,60.6,29.94,South,180,8.5,8.5,50,0.00,,,0.00,WUHU21623XXSP,2013-05-01 18:32:00,
2013-05-01 14:38:00,81.1,60.8,29.94,South,180,7.4,8.5,50,0.00,,,0.00,WUHU21623XXSP,2013-05-01 18:38:00,
2013-05-01 14:43:00,81.1,60.8,29.94,SSW,202,6.3,7.4,50,0.00,,,0.00,WUHU21623XXSP,2013-05-01 18:43:00,
2013-05-01 14:48:00,81.3,61.6,29.95,SSW,202,0.0,6.3,51,0.00,,,0.00,WUHU21623XXSP,2013-05-01 18:48:00,
2013-05-01 14:53:00,81.3,61.6,29.95,SSW,202,3.6,3.6,51,0.00,,,0.00,WUHU21623XXSP,2013-05-01 18:53:00,
2013-05-01 14:58:00,81.6,61.3,29.94,SSW,202,9.2,9.2,50,0.00,,,0.00,WUHU21623XXSP,2013-05-01 18:58:00,
2013-05-01 15:03:00,81.6,60.7,29.94,SSW,202,8.3,9.2,49,0.00,,,0.00,WUHU21623XXSP,2013-05-01 19:03:00,
2013-05-01 15:08:00,81.6,60.7,29.94,SW,225,2.2,8.3,49,0.00,,,0.00,WUHU21623XXSP,2013-05-01 19:08:00,
2013-05-01 15:13:00,81.6,60.7,29.94,SSW,202,3.8,4.7,49,0.00,,,0.00,WUHU21623XXSP,2013-05-01 19:13:00,
2013-05-01 15:18:00,81.6,60.7,29.94,SSE,157,8.1,8.1,49,0.00,,,0.00,WUHU21623XXSP,2013-05-01 19:18:00,
2013-05-01 15:23:00,81.8,60.3,29.94,SSE,157,7.2,8.1,48,0.00,,,0.00,WUHU21623XXSP,2013-05-01 19:23:00,
2013-05-01 15:28:00,81.6,60.1,29.94,SSW,202,5.8,7.4,48,0.00,,,0.00,WUHU21623XXSP,2013-05-01 19:28:00,
2013-05-01 15:33:00,81.6,59.5,29.94,SSW,202,0.0,7.4,47,0.00,,,0.00,WUHU21623XXSP,2013-05-01 19:33:00,
2013-05-01 15:38:00,81.6,59.5,29.94,South,180,8.7,8.7,47,0.00,,,0.00,WUHU21623XXSP,2013-05-01 19:38:00,
2013-05-01 15:43:00,81.6,58.9,29.94,SW,225,7.6,8.7,46,0.00,,,0.00,WUHU21623XXSP,2013-05-01 19:43:00,
2013-05-01 15:48:00,81.6,59.5,29.94,SSE,157,3.6,7.6,47,0.00,,,0.00,WUHU21623XXSP,2013-05-01 19:48:00,
2013-05-01 15:53:00,81.6,59.5,29.94,SSE,157,6.3,6.3,47,0.00,,,0.00,WUHU21623XXSP,2013-05-01 19:53:00,
2013-05-01 15:58:00,81.6,58.9,29.94,SSW,202,11.4,11.4,46,0.00,,,0.00,WUHU21623XXSP,2013-05-01 19:58:00,
2013-05-01 16:04:00,81.6,58.9,29.94,SSW,202,11.0,11.4,46,0.00,,,0.00,WUHU21623XXSP,2013-05-01 20:04:00,
2013-05-01 16:09:00,81.8,59.0,29.94,SW,225,6.3,11.0,46,0.00,,,0.00,WUHU21623XXSP,2013-05-01 20:09:00,
2013-05-01 16:14:00,81.8,59.0,29.94,South,180,7.8,7.8,46,0.00,,,0.00,WUHU21623XXSP,2013-05-01 20:14:00,
2013-05-01 16:19:00,81.8,58.4,29.94,South,180,4.0,7.8,45,0.00,,,0.00,WUHU21623XXSP,2013-05-01 20:19:00,
2013-05-01 16:24:00,81.8,58.4,29.94,SSW,202,11.6,11.6,45,0.00,,,0.00,WUHU21623XXSP,2013-05-01 20:24:00,
2013-05-01 16:29:00,81.6,58.2,29.94,SSW,202,8.1,11.6,45,0.00,,,0.00,WUHU21623XXSP,2013-05-01 20:29:00,
2013-05-01 16:34:00,81.6,58.2,29.94,South,180,12.5,12.5,45,0.00,,,0.00,WUHU21623XXSP,2013-05-01 20:34:00,
2013-05-01 16:39:00,81.6,56.9,29.94,SE,135,7.8,12.5,43,0.00,,,0.00,WUHU21623XXSP,2013-05-01 20:39:00,
2013-05-01 16:44:00,81.6,56.9,29.94,SSW,202,13.2,13.2,43,0.00,,,0.00,WUHU21623XXSP,2013-05-01 20:44:00,
2013-05-01 16:49:00,81.4,56.7,29.94,SSE,157,6.0,13.2,43,0.00,,,0.00,WUHU21623XXSP,2013-05-01 20:49:00,
2013-05-01 16:54:00,81.6,56.9,29.94,SSE,157,6.0,6.0,43,0.00,,,0.00,WUHU21623XXSP,2013-05-01 20:54:00,
2013-05-01 16:59:00,81.6,57.6,29.95,SSW,202,13.2,13.2,44,0.00,,,0.00,WUHU21623XXSP,2013-05-01 20:59:00,
2013-05-01 17:04:00,81.6,56.9,29.95,SW,225,7.2,13.2,43,0.00,,,0.00,WUHU21623XXSP,2013-05-01 21:04:00,
2013-05-01 17:09:00,81.6,56.3,29.95,South,180,13.4,13.4,42,0.00,,,0.00,WUHU21623XXSP,2013-05-01 21:09:00,
2013-05-01 17:15:00,81.4,56.7,29.95,SSW,202,4.7,13.4,43,0.00,,,0.00,WUHU21623XXSP,2013-05-01 21:15:00,
2013-05-01 17:20:00,81.4,56.7,29.95,South,180,11.0,11.0,43,0.00,,,0.00,WUHU21623XXSP,2013-05-01 21:20:00,
2013-05-01 17:25:00,81.4,56.7,29.95,South,180,5.1,11.0,43,0.00,,,0.00,WUHU21623XXSP,2013-05-01 21:25:00,
2013-05-01 17:30:00,81.1,57.1,29.95,South,180,6.3,6.5,44,0.00,,,0.00,WUHU21623XXSP,2013-05-01 21:30:00,
2013-05-01 17:35:00,81.1,57.1,29.95,SSE,157,0.0,6.5,44,0.00,,,0.00,WUHU21623XXSP,2013-05-01 21:35:00,
2013-05-01 17:40:00,81.1,57.1,29.95,SSW,202,5.8,5.8,44,0.00,,,0.00,WUHU21623XXSP,2013-05-01 21:40:00,
2013-05-01 17:45:00,80.9,56.9,29.95,SSE,157,5.8,5.8,44,0.00,,,0.00,WUHU21623XXSP,2013-05-01 21:45:00,
2013-05-01 17:50:00,80.9,57.6,29.95,SSW,202,3.4,5.8,45,0.00,,,0.00,WUHU21623XXSP,2013-05-01 21:50:00,
2013-05-01 17:55:00,80.7,56.8,29.95,SSW,202,3.4,3.4,44,0.00,,,0.00,WUHU21623XXSP,2013-05-01 21:55:00,
2013-05-01 18:08:00,80.5,56.6,29.95,SE,135,7.6,7.6,44,0.00,,,0.00,WUHU21623XXSP,2013-05-01 22:08:00,
2013-05-01 18:13:00,80.5,56.6,29.95,SSW,202,5.6,7.6,44,0.00,,,0.00,WUHU21623XXSP,2013-05-01 22:13:00,
2013-05-01 18:18:00,80.2,57.0,29.95,SSE,157,4.9,5.6,45,0.00,,,0.00,WUHU21623XXSP,2013-05-01 22:18:00,
2013-05-01 18:23:00,80.0,56.8,29.95,South,180,4.5,4.9,45,0.00,,,0.00,WUHU21623XXSP,2013-05-01 22:23:00,
2013-05-01 18:28:00,79.8,56.6,29.95,SE,135,6.5,6.5,45,0.00,,,0.00,WUHU21623XXSP,2013-05-01 22:28:00,
2013-05-01 18:33:00,79.8,57.2,29.95,South,180,4.7,6.5,46,0.00,,,0.00,WUHU21623XXSP,2013-05-01 22:33:00,
2013-05-01 18:38:00,79.6,57.0,29.95,SSW,202,0.0,4.7,46,0.00,,,0.00,WUHU21623XXSP,2013-05-01 22:38:00,
2013-05-01 18:43:00,79.5,56.9,29.95,SSE,157,7.4,7.4,46,0.00,,,0.00,WUHU21623XXSP,2013-05-01 22:43:00,
2013-05-01 18:49:00,79.1,56.6,29.95,South,180,6.0,7.4,46,0.00,,,0.00,WUHU21623XXSP,2013-05-01 22:49:00,
2013-05-01 18:54:00,78.9,56.4,29.95,South,180,7.2,7.2,46,0.00,,,0.00,WUHU21623XXSP,2013-05-01 22:54:00,
2013-05-01 18:59:00,78.7,56.2,29.95,SSE,157,5.1,7.2,46,0.00,,,0.00,WUHU21623XXSP,2013-05-01 22:59:00,
2013-05-01 19:04:00,78.6,56.1,29.94,SSE,157,0.0,5.1,46,0.00,,,0.00,WUHU21623XXSP,2013-05-01 23:04:00,
2013-05-01 19:09:00,78.4,56.6,29.95,South,180,9.8,9.8,47,0.00,,,0.00,WUHU21623XXSP,2013-05-01 23:09:00,
2013-05-01 19:14:00,78.0,56.2,29.95,SSE,157,6.3,9.8,47,0.00,,,0.00,WUHU21623XXSP,2013-05-01 23:14:00,
2013-05-01 19:19:00,77.8,56.0,29.95,SSE,157,5.4,6.3,47,0.00,,,0.00,WUHU21623XXSP,2013-05-01 23:19:00,
2013-05-01 19:24:00,77.7,55.9,29.95,SSW,202,6.5,6.5,47,0.00,,,0.00,WUHU21623XXSP,2013-05-01 23:24:00,
2013-05-01 19:29:00,77.5,55.7,29.95,SE,135,0.0,6.5,47,0.00,,,0.00,WUHU21623XXSP,2013-05-01 23:29:00,
2013-05-01 19:34:00,77.3,55.5,29.95,SSE,157,0.0,0.0,47,0.00,,,0.00,WUHU21623XXSP,2013-05-01 23:34:00,
2013-05-01 19:39:00,77.1,56.0,29.95,SSW,202,6.5,6.5,48,0.00,,,0.00,WUHU21623XXSP,2013-05-01 23:39:00,
2013-05-01 19:44:00,76.9,55.8,29.96,SSW,202,7.8,7.8,48,0.00,,,0.00,WUHU21623XXSP,2013-05-01 23:44:00,
2013-05-01 19:51:00,76.4,55.3,29.96,South,180,0.0,7.8,48,0.00,,,0.00,WUHU21623XXSP,2013-05-01 23:51:00,
2013-05-01 19:56:00,76.2,55.1,29.96,South,180,0.0,0.0,48,0.00,,,0.00,WUHU21623XXSP,2013-05-01 23:56:00,
2013-05-01 20:01:00,76.0,55.5,29.96,SE,135,5.1,5.1,49,0.00,,,0.00,WUHU21623XXSP,2013-05-02 00:01:00,
2013-05-01 20:06:00,75.7,55.3,29.96,SSE,157,0.0,5.1,49,0.00,,,0.00,WUHU21623XXSP,2013-05-02 00:06:00,
2013-05-01 20:11:00,75.3,54.3,29.96,SE,135,0.0,0.0,48,0.00,,,0.00,WUHU21623XXSP,2013-05-02 00:11:00,
2013-05-01 20:16:00,75.1,54.7,29.96,SSE,157,0.0,0.0,49,0.00,,,0.00,WUHU21623XXSP,2013-05-02 00:16:00,
2013-05-01 20:21:00,74.8,54.4,29.96,SSE,157,0.0,0.0,49,0.00,,,0.00,WUHU21623XXSP,2013-05-02 00:21:00,
2013-05-01 20:26:00,74.6,54.2,29.97,SSE,157,0.0,0.0,49,0.00,,,0.00,WUHU21623XXSP,2013-05-02 00:26:00,
2013-05-01 20:31:00,74.4,54.1,29.97,South,180,0.0,0.0,49,0.00,,,0.00,WUHU21623XXSP,2013-05-02 00:31:00,
2013-05-01 20:36:00,73.5,53.8,29.97,SSE,157,0.0,0.0,50,0.00,,,0.00,WUHU21623XXSP,2013-05-02 00:36:00,
2013-05-01 20:42:00,73.0,53.9,29.97,South,180,0.0,0.0,51,0.00,,,0.00,WUHU21623XXSP,2013-05-02 00:42:00,
2013-05-01 20:49:00,72.6,53.5,29.97,SSE,157,0.0,0.0,51,0.00,,,0.00,WUHU21623XXSP,2013-05-02 00:49:00,
2013-05-01 20:54:00,72.4,53.9,29.97,South,180,0.0,0.0,52,0.00,,,0.00,WUHU21623XXSP,2013-05-02 00:54:00,
2013-05-01 20:59:00,71.9,53.4,29.97,South,180,0.0,0.0,52,0.00,,,0.00,WUHU21623XXSP,2013-05-02 00:59:00,
2013-05-01 21:04:00,71.7,53.2,29.97,South,180,0.0,0.0,52,0.00,,,0.00,WUHU21623XXSP,2013-05-02 01:04:00,
2013-05-01 21:09:00,71.5,53.6,29.97,South,180,0.0,0.0,53,0.00,,,0.00,WUHU21623XXSP,2013-05-02 01:09:00,
2013-05-01 21:14:00,71.0,53.1,29.98,South,180,0.0,0.0,53,0.00,,,0.00,WUHU21623XXSP,2013-05-02 01:14:00,
2013-05-01 21:19:00,70.8,52.9,29.98,South,180,0.0,0.0,53,0.00,,,0.00,WUHU21623XXSP,2013-05-02 01:19:00,
2013-05-01 21:24:00,70.5,53.2,29.98,South,180,0.0,0.0,54,0.00,,,0.00,WUHU21623XXSP,2013-05-02 01:24:00,
2013-05-01 21:29:00,70.1,52.8,29.98,SSE,157,0.0,0.0,54,0.00,,,0.00,WUHU21623XXSP,2013-05-02 01:29:00,
2013-05-01 21:36:00,69.7,52.9,29.98,SSW,202,0.0,0.0,55,0.00,,,0.00,WUHU21623XXSP,2013-05-02 01:36:00,
2013-05-01 21:42:00,69.6,52.8,29.99,SSW,202,0.0,0.0,55,0.00,,,0.00,WUHU21623XXSP,2013-05-02 01:42:00,
2013-05-01 21:47:00,69.4,52.7,29.99,SSW,202,0.0,0.0,55,0.00,,,0.00,WUHU21623XXSP,2013-05-02 01:47:00,
2013-05-01 21:52:00,69.4,52.7,29.99,SSW,202,0.0,0.0,55,0.00,,,0.00,WUHU21623XXSP,2013-05-02 01:52:00,
2013-05-01 21:59:00,68.8,52.6,29.99,SSE,157,0.0,0.0,56,0.00,,,0.00,WUHU21623XXSP,2013-05-02 01:59:00,
2013-05-01 22:04:00,68.8,52.6,29.99,South,180,0.0,0.0,56,0.00,,,0.00,WUHU21623XXSP,2013-05-02 02:04:00,
2013-05-01 22:09:00,68.7,52.5,29.99,SSE,157,2.7,2.7,56,0.00,,,0.00,WUHU21623XXSP,2013-05-02 02:09:00,
2013-05-01 22:18:00,68.3,52.6,29.99,SSE,157,0.0,0.0,57,0.00,,,0.00,WUHU21623XXSP,2013-05-02 02:18:00,
2013-05-01 22:23:00,68.3,52.6,29.99,SSE,157,0.0,0.0,57,0.00,,,0.00,WUHU21623XXSP,2013-05-02 02:23:00,
2013-05-01 22:28:00,68.3,52.6,29.99,SSE,157,0.0,0.0,57,0.00,,,0.00,WUHU21623XXSP,2013-05-02 02:28:00,
2013-05-01 22:33:00,68.1,51.9,29.99,South,180,0.0,0.0,56,0.00,,,0.00,WUHU21623XXSP,2013-05-02 02:33:00,
2013-05-01 22:38:00,68.1,51.9,29.99,South,180,0.0,0.0,56,0.00,,,0.00,WUHU21623XXSP,2013-05-02 02:38:00,
2013-05-01 22:48:00,67.8,51.7,30.00,South,180,0.0,0.0,56,0.00,,,0.00,WUHU21623XXSP,2013-05-02 02:48:00,
2013-05-01 22:55:00,67.4,51.8,29.99,South,180,0.0,0.0,57,0.00,,,0.00,WUHU21623XXSP,2013-05-02 02:55:00,
2013-05-01 23:00:00,67.2,51.6,29.99,South,180,0.0,0.0,57,0.00,,,0.00,WUHU21623XXSP,2013-05-02 03:00:00,
2013-05-01 23:05:00,67.0,51.9,29.99,South,180,0.0,0.0,58,0.00,,,0.00,WUHU21623XXSP,2013-05-02 03:05:00,
2013-05-01 23:10:00,66.9,51.8,29.99,South,180,0.0,0.0,58,0.00,,,0.00,WUHU21623XXSP,2013-05-02 03:10:00,
2013-05-01 23:15:00,66.7,52.1,29.99,South,180,0.0,0.0,59,0.00,,,0.00,WUHU21623XXSP,2013-05-02 03:15:00,
2013-05-01 23:20:00,66.3,51.7,29.99,South,180,0.0,0.0,59,0.00,,,0.00,WUHU21623XXSP,2013-05-02 03:20:00,
2013-05-01 23:25:00,66.1,52.0,29.99,South,180,0.0,0.0,60,0.00,,,0.00,WUHU21623XXSP,2013-05-02 03:25:00,
2013-05-01 23:38:00,65.6,51.9,29.99,South,180,0.0,0.0,61,0.00,,,0.00,WUHU21623XXSP,2013-05-02 03:38:00,